createdAt,value
2019-04-21T00:01:16.499Z,9.78
2019-04-21T00:03:51.495Z,9.78
2019-04-21T00:06:30.193Z,9.69
2019-04-21T00:09:02.712Z,9.86
2019-04-21T00:11:49.726Z,9.67
2019-04-21T00:14:22.687Z,9.63
2019-04-21T00:17:07.892Z,9.14
2019-04-21T00:22:33.156Z,8.97
2019-04-21T00:24:59.763Z,9.05
2019-04-21T00:27:28.329Z,9.03
2019-04-21T00:29:59.098Z,9.06
2019-04-21T00:32:33.515Z,8.72
2019-04-21T00:34:56.255Z,8.72
2019-04-21T00:37:57.645Z,8.49
2019-04-21T00:41:07.275Z,8.59
2019-04-21T00:43:30.722Z,8.59
2019-04-21T00:46:10.792Z,8.82
2019-04-21T00:48:47.667Z,8.82
2019-04-21T00:52:15.876Z,8.35
2019-04-21T00:55:14.013Z,8.68
2019-04-21T00:57:57.476Z,8.07
2019-04-21T01:00:44.514Z,8.47
2019-04-21T01:03:12.873Z,8.47
2019-04-21T01:05:57.642Z,8.65
2019-04-21T01:08:41.032Z,8.74
2019-04-21T01:11:31.816Z,8.63
2019-04-21T01:14:05.138Z,8.63
2019-04-21T01:16:33.153Z,8.67
2019-04-21T01:18:56.559Z,8.14
2019-04-21T01:21:13.600Z,8.14
2019-04-21T01:23:31.738Z,7.63
2019-04-21T01:26:13.738Z,7.63
2019-04-21T01:28:40.067Z,7.59
2019-04-21T01:31:15.375Z,7.57
2019-04-21T01:33:44.937Z,7.37
2019-04-21T01:36:08.247Z,7.71
2019-04-21T01:39:03.397Z,7.86
2019-04-21T01:41:28.104Z,7.86
2019-04-21T01:43:49.070Z,7.79
2019-04-21T01:46:15.410Z,7.76
2019-04-21T01:48:45.646Z,7.54
2019-04-21T01:54:26.843Z,7.65
2019-04-21T01:59:47.324Z,7.52
2019-04-21T02:02:43.716Z,7.55
2019-04-21T02:05:39.334Z,7.07
2019-04-21T02:08:01.955Z,7.07
2019-04-21T02:10:34.947Z,7.26
2019-04-21T02:12:58.285Z,7.22
2019-04-21T02:16:06.844Z,7.30
2019-04-21T02:18:34.026Z,7.00
2019-04-21T02:20:55.328Z,6.84
2019-04-21T02:25:58.764Z,6.76
2019-04-21T02:28:50.216Z,6.97
2019-04-21T02:33:55.916Z,6.87
2019-04-21T02:39:23.194Z,6.92
2019-04-21T02:46:46.304Z,6.72
2019-04-21T02:49:22.082Z,6.74
2019-04-21T02:51:58.721Z,6.74
2019-04-21T02:56:48.789Z,6.80
2019-04-21T03:07:42.777Z,6.41
2019-04-21T03:10:10.724Z,6.29
2019-04-21T03:12:38.082Z,6.29
2019-04-21T03:20:02.900Z,6.38
2019-04-21T03:22:42.376Z,6.20
2019-04-21T03:25:21.377Z,6.35
2019-04-21T03:27:57.325Z,6.20
2019-04-21T03:34:02.696Z,6.18
2019-04-21T03:36:13.292Z,6.07
2019-04-21T03:38:18.928Z,5.93
2019-04-21T03:40:41.218Z,5.87
2019-04-21T03:43:12.209Z,5.71
2019-04-21T03:51:23.504Z,5.47
2019-04-21T03:56:14.834Z,5.36
2019-04-21T03:58:55.867Z,5.38
2019-04-21T04:01:37.092Z,5.26
2019-04-21T04:12:26.399Z,4.99
2019-04-21T04:17:25.682Z,4.95
2019-04-21T04:19:45.014Z,4.32
2019-04-21T04:22:04.295Z,4.75
2019-04-21T04:24:39.581Z,4.82
2019-04-21T04:29:59.426Z,5.09
2019-04-21T04:32:23.207Z,5.09
2019-04-21T04:40:21.521Z,4.61
2019-04-21T04:45:53.636Z,5.47
2019-04-21T04:48:19.711Z,5.47
2019-04-21T04:53:20.337Z,5.81
2019-04-21T04:58:18.239Z,4.97
2019-04-21T05:01:32.780Z,5.48
2019-04-21T05:04:20.325Z,5.75
2019-04-21T05:09:07.747Z,5.67
2019-04-21T05:12:11.284Z,5.72
2019-04-21T05:15:04.491Z,6.05
2019-04-21T05:20:10.411Z,6.12
2019-04-21T05:22:22.305Z,6.46
2019-04-21T05:25:00.982Z,6.58
2019-04-21T05:27:50.009Z,6.58
2019-04-21T05:35:51.399Z,6.47
2019-04-21T05:38:31.542Z,6.55
2019-04-21T05:41:17.583Z,6.98
2019-04-21T05:43:54.121Z,6.98
2019-04-21T05:46:18.452Z,6.86
2019-04-21T05:49:12.710Z,7.32
2019-04-21T05:51:33.191Z,7.56
2019-04-21T05:54:17.771Z,7.84
2019-04-21T05:56:36.464Z,8.24
2019-04-21T05:58:55.437Z,8.24
2019-04-21T06:04:07.247Z,8.49
2019-04-21T06:06:56.738Z,8.88
2019-04-21T06:10:00.001Z,8.88
2019-04-21T06:12:29.720Z,9.08
2019-04-21T06:14:55.952Z,9.43
2019-04-21T06:17:30.466Z,9.42
2019-04-21T06:20:16.505Z,9.77
2019-04-21T06:22:36.012Z,9.77
2019-04-21T06:28:01.816Z,10.14
2019-04-21T06:30:53.339Z,10.47
2019-04-21T06:33:10.381Z,10.47
2019-04-21T06:41:22.799Z,11.36
2019-04-21T06:46:34.883Z,12.07
2019-04-21T06:49:02.676Z,12.27
2019-04-21T06:51:48.410Z,12.33
2019-04-21T06:54:14.725Z,12.33
2019-04-21T06:56:58.653Z,12.63
2019-04-21T06:59:12.077Z,12.61
2019-04-21T07:01:43.905Z,12.88
2019-04-21T07:06:43.611Z,13.31
2019-04-21T07:11:25.565Z,13.87
2019-04-21T07:14:13.279Z,14.24
2019-04-21T07:16:32.002Z,14.55
2019-04-21T07:19:04.407Z,15.08
2019-04-21T07:21:25.526Z,15.28
2019-04-21T07:23:54.279Z,15.53
2019-04-21T07:26:19.684Z,15.12
2019-04-21T07:31:59.178Z,15.96
2019-04-21T07:34:28.845Z,16.23
2019-04-21T07:39:17.998Z,16.56
2019-04-21T07:41:43.843Z,16.70
2019-04-21T07:44:04.614Z,16.78
2019-04-21T07:46:36.369Z,17.24
2019-04-21T07:49:32.888Z,17.11
2019-04-21T07:54:41.465Z,17.54
2019-04-21T07:56:52.416Z,17.61
2019-04-21T07:59:37.134Z,17.49
2019-04-21T08:02:02.519Z,17.71
2019-04-21T08:04:43.551Z,17.61
2019-04-21T08:06:52.085Z,17.62
2019-04-21T08:09:22.956Z,17.77
2019-04-21T08:11:44.257Z,17.81
2019-04-21T08:14:19.507Z,18.05
2019-04-21T08:16:49.883Z,18.39
2019-04-21T08:19:13.054Z,18.62
2019-04-21T08:21:42.603Z,18.47
2019-04-21T08:24:13.158Z,18.10
2019-04-21T08:26:35.972Z,18.49
2019-04-21T08:29:12.602Z,18.59
2019-04-21T08:31:45.588Z,18.56
2019-04-21T08:34:03.307Z,18.90
2019-04-21T08:38:54.514Z,19.32
2019-04-21T08:41:18.868Z,19.53
2019-04-21T08:44:01.691Z,19.25
2019-04-21T08:46:20.268Z,19.18
2019-04-21T08:48:43.876Z,19.00
2019-04-21T08:53:42.842Z,19.46
2019-04-21T08:56:31.915Z,19.26
2019-04-21T08:59:19.300Z,19.53
2019-04-21T09:02:02.903Z,19.81
2019-04-21T09:07:20.065Z,19.92
2019-04-21T09:09:47.481Z,19.96
2019-04-21T09:12:10.991Z,19.64
2019-04-21T09:17:20.626Z,20.00
2019-04-21T09:20:05.733Z,20.13
2019-04-21T09:22:28.683Z,20.21
2019-04-21T09:24:52.630Z,19.93
2019-04-21T09:27:17.903Z,19.87
2019-04-21T09:29:36.739Z,19.87
2019-04-21T09:31:59.171Z,19.98
2019-04-21T09:34:30.585Z,20.00
2019-04-21T09:37:02.937Z,20.07
2019-04-21T09:39:22.655Z,20.20
2019-04-21T09:41:51.194Z,20.19
2019-04-21T09:44:22.060Z,20.07
2019-04-21T09:46:49.778Z,20.11
2019-04-21T09:49:13.903Z,20.28
2019-04-21T09:51:39.332Z,20.44
2019-04-21T09:54:12.063Z,20.44
2019-04-21T09:56:41.500Z,20.59
2019-04-21T09:59:11.437Z,20.85
2019-04-21T10:01:47.501Z,20.66
2019-04-21T10:04:00.280Z,20.37
2019-04-21T10:06:25.968Z,20.58
2019-04-21T10:08:58.531Z,20.86
2019-04-21T10:11:20.997Z,21.07
2019-04-21T10:13:48.791Z,20.90
2019-04-21T10:16:36.379Z,20.99
2019-04-21T10:19:02.623Z,20.99
2019-04-21T10:21:29.397Z,20.99
2019-04-21T10:23:56.210Z,21.37
2019-04-21T10:26:22.256Z,21.27
2019-04-21T10:28:49.020Z,21.28
2019-04-21T10:31:16.728Z,21.40
2019-04-21T10:33:44.252Z,21.37
2019-04-21T10:36:11.358Z,21.04
2019-04-21T10:38:43.194Z,21.42
2019-04-21T10:41:05.505Z,21.48
2019-04-21T10:43:33.481Z,21.61
2019-04-21T10:46:01.238Z,21.81
2019-04-21T10:48:29.313Z,21.44
2019-04-21T10:50:57.012Z,21.62
2019-04-21T10:56:20.172Z,21.52
2019-04-21T11:06:34.736Z,22.12
2019-04-21T11:09:03.687Z,22.15
2019-04-21T11:11:30.193Z,22.69
2019-04-21T11:13:58.752Z,22.89
2019-04-21T11:16:25.161Z,22.66
2019-04-21T11:18:51.624Z,22.90
2019-04-21T11:21:18.877Z,22.69
2019-04-21T11:23:45.810Z,23.11
2019-04-21T11:26:13.630Z,22.77
2019-04-21T11:28:40.832Z,22.45
2019-04-21T11:31:09.009Z,22.52
2019-04-21T11:33:37.477Z,21.83
2019-04-21T11:36:03.811Z,22.25
2019-04-21T11:39:03.306Z,22.41
2019-04-21T11:43:51.163Z,22.81
2019-04-21T11:46:18.228Z,23.13
2019-04-21T11:48:46.087Z,23.47
2019-04-21T11:51:13.125Z,23.37
2019-04-21T11:53:41.092Z,23.77
2019-04-21T11:56:09.052Z,23.71
2019-04-21T11:58:36.243Z,23.91
2019-04-21T12:03:49.679Z,23.09
2019-04-21T12:06:17.485Z,22.88
2019-04-21T12:08:49.421Z,23.59
2019-04-21T12:11:13.715Z,23.60
2019-04-21T12:13:42.292Z,23.48
2019-04-21T12:18:56.946Z,23.24
2019-04-21T12:21:23.361Z,23.62
2019-04-21T12:23:50.649Z,23.16
2019-04-21T12:26:17.931Z,22.60
2019-04-21T12:28:44.263Z,23.09
2019-04-21T12:36:35.814Z,24.75
2019-04-21T12:42:04.729Z,24.55
2019-04-21T12:44:31.682Z,23.82
2019-04-21T12:46:59.180Z,23.93
2019-04-21T12:49:45.582Z,24.61
2019-04-21T12:52:11.550Z,24.50
2019-04-21T12:54:37.720Z,24.03
2019-04-21T12:57:05.417Z,24.83
2019-04-21T12:59:34.170Z,24.61
2019-04-21T13:02:43.465Z,24.90
2019-04-21T13:05:11.574Z,24.95
2019-04-21T13:07:37.894Z,24.24
2019-04-21T13:10:46.413Z,24.45
2019-04-21T13:13:12.430Z,24.45
2019-04-21T13:15:39.674Z,24.32
2019-04-21T13:18:06.129Z,24.93
2019-04-21T13:20:31.945Z,25.57
2019-04-21T13:22:57.898Z,25.32
2019-04-21T13:25:24.105Z,26.04
2019-04-21T13:27:49.965Z,25.69
2019-04-21T13:30:58.216Z,25.27
2019-04-21T13:33:25.169Z,25.68
2019-04-21T13:35:53.102Z,25.32
2019-04-21T13:38:29.362Z,26.01
2019-04-21T13:41:23.092Z,26.06
2019-04-21T13:46:12.213Z,24.95
2019-04-21T13:48:38.152Z,25.26
2019-04-21T13:51:05.002Z,25.66
2019-04-21T13:53:33.102Z,25.67
2019-04-21T13:56:00.435Z,26.75
2019-04-21T13:58:28.564Z,25.80
2019-04-21T14:00:56.060Z,24.42
2019-04-21T14:03:24.716Z,24.39
2019-04-21T14:05:50.715Z,25.69
2019-04-21T14:08:16.652Z,26.55
2019-04-21T14:10:43.955Z,25.12
2019-04-21T14:13:10.457Z,25.08
2019-04-21T14:15:36.373Z,24.94
2019-04-21T14:18:02.868Z,26.01
2019-04-21T14:20:31.208Z,26.68
2019-04-21T14:23:10.297Z,25.83
2019-04-21T14:25:25.956Z,26.05
2019-04-21T14:27:53.733Z,26.45
2019-04-21T14:30:20.611Z,24.96
2019-04-21T14:32:48.112Z,24.55
2019-04-21T14:35:14.772Z,24.91
2019-04-21T14:37:42.538Z,25.21
2019-04-21T14:40:14.583Z,24.98
2019-04-21T14:42:38.256Z,24.91
2019-04-21T14:45:45.793Z,24.46
2019-04-21T14:48:32.614Z,25.02
2019-04-21T14:51:19.121Z,25.46
2019-04-21T14:56:19.396Z,26.08
2019-04-21T14:58:47.052Z,25.33
2019-04-21T15:01:13.694Z,24.55
2019-04-21T15:03:41.729Z,24.48
2019-04-21T15:06:09.364Z,24.03
2019-04-21T15:08:37.371Z,24.49
2019-04-21T15:11:05.332Z,23.91
2019-04-21T15:13:32.382Z,24.38
2019-04-21T15:16:00.634Z,24.85
2019-04-21T15:18:28.573Z,24.28
2019-04-21T15:20:55.361Z,24.22
2019-04-21T15:23:24.442Z,24.10
2019-04-21T15:25:50.274Z,24.53
2019-04-21T15:28:17.822Z,24.18
2019-04-21T15:30:44.771Z,24.12
2019-04-21T15:33:10.722Z,24.63
2019-04-21T15:35:37.660Z,23.69
2019-04-21T15:38:04.206Z,23.83
2019-04-21T15:40:40.773Z,23.96
2019-04-21T15:42:57.870Z,23.59
2019-04-21T15:45:24.372Z,23.71
2019-04-21T15:47:50.310Z,23.86
2019-04-21T15:50:18.133Z,23.85
2019-04-21T15:55:39.224Z,24.02
2019-04-21T16:00:58.839Z,24.54
2019-04-21T16:03:24.899Z,23.98
2019-04-21T16:05:53.688Z,23.84
2019-04-21T16:08:20.446Z,23.98
2019-04-21T16:10:54.695Z,24.23
2019-04-21T16:13:16.118Z,25.12
2019-04-21T16:15:44.262Z,25.70
2019-04-21T16:18:12.173Z,25.58
2019-04-21T16:20:39.928Z,24.77
2019-04-21T16:23:08.485Z,24.15
2019-04-21T16:28:11.096Z,22.70
2019-04-21T16:30:38.349Z,22.62
2019-04-21T16:33:06.034Z,22.25
2019-04-21T16:35:33.829Z,22.08
2019-04-21T16:38:02.538Z,21.82
2019-04-21T16:40:41.311Z,21.72
2019-04-21T16:42:56.743Z,21.71
2019-04-21T16:46:04.682Z,21.36
2019-04-21T16:48:30.904Z,21.55
2019-04-21T16:56:20.628Z,21.19
2019-04-21T17:01:44.742Z,20.99
2019-04-21T17:04:10.822Z,20.96
2019-04-21T17:06:38.605Z,20.90
2019-04-21T17:09:46.466Z,20.79
2019-04-21T17:12:14.660Z,20.75
2019-04-21T17:14:55.577Z,20.61
2019-04-21T17:17:35.172Z,20.51
2019-04-21T17:19:41.819Z,20.46
2019-04-21T17:22:45.732Z,20.46
2019-04-21T17:25:11.809Z,20.39
2019-04-21T17:27:38.877Z,20.24
2019-04-21T17:30:48.453Z,20.14
2019-04-21T17:33:21.025Z,20.31
2019-04-21T17:35:42.848Z,20.25
2019-04-21T17:38:09.858Z,20.18
2019-04-21T17:40:37.809Z,20.04
2019-04-21T17:43:10.148Z,19.97
2019-04-21T17:45:33.016Z,19.98
2019-04-21T17:48:05.141Z,19.74
2019-04-21T17:50:49.498Z,19.70
2019-04-21T17:56:16.751Z,19.51
2019-04-21T17:58:31.043Z,19.34
2019-04-21T18:04:04.865Z,19.20
2019-04-21T18:06:57.912Z,19.08
2019-04-21T18:09:36.388Z,18.99
2019-04-21T18:12:01.928Z,18.89
2019-04-21T18:14:09.512Z,18.88
2019-04-21T18:16:41.789Z,18.83
2019-04-21T18:19:04.817Z,18.78
2019-04-21T18:21:54.810Z,18.68
2019-04-21T18:29:33.681Z,18.31
2019-04-21T18:32:01.106Z,18.17
2019-04-21T18:37:33.084Z,18.06
2019-04-21T18:40:05.797Z,18.07
2019-04-21T18:45:55.379Z,17.81
2019-04-21T18:48:26.679Z,17.81
2019-04-21T18:51:11.397Z,17.71
2019-04-21T18:56:12.933Z,17.52
2019-04-21T18:58:38.142Z,17.53
2019-04-21T19:01:11.827Z,17.29
2019-04-21T19:03:39.920Z,17.37
2019-04-21T19:06:08.815Z,17.37
2019-04-21T19:08:46.594Z,17.38
2019-04-21T19:11:14.791Z,17.44
2019-04-21T19:14:12.957Z,17.38
2019-04-21T19:16:33.229Z,17.30
2019-04-21T19:19:20.897Z,17.24
2019-04-21T19:21:23.110Z,17.11
2019-04-21T19:23:51.962Z,16.96
2019-04-21T19:27:12.061Z,16.82
2019-04-21T19:29:32.984Z,16.74
2019-04-21T19:32:13.912Z,16.77
2019-04-21T19:34:17.426Z,16.81
2019-04-21T19:36:36.982Z,16.68
2019-04-21T19:39:58.515Z,16.54
2019-04-21T19:42:22.652Z,16.43
2019-04-21T19:44:56.541Z,16.28
2019-04-21T19:47:28.202Z,15.78
2019-04-21T19:49:55.411Z,15.96
2019-04-21T19:52:11.294Z,15.71
2019-04-21T19:54:36.363Z,15.74
2019-04-21T19:57:00.753Z,15.73
2019-04-21T19:59:34.532Z,15.77
2019-04-21T20:01:56.163Z,15.71
2019-04-21T20:04:31.806Z,15.64
2019-04-21T20:07:01.036Z,15.75
2019-04-21T20:09:36.725Z,15.62
2019-04-21T20:11:58.095Z,15.70
2019-04-21T20:16:58.107Z,15.74
2019-04-21T20:19:12.586Z,15.74
2019-04-21T20:21:38.894Z,15.74
2019-04-21T20:24:28.359Z,15.71
2019-04-21T20:27:03.599Z,15.49
2019-04-21T20:29:38.902Z,15.53
2019-04-21T20:32:08.375Z,15.31
2019-04-21T20:34:34.484Z,15.24
2019-04-21T20:37:02.191Z,14.99
2019-04-21T20:39:17.185Z,14.92
2019-04-21T20:41:48.290Z,14.79
2019-04-21T20:44:23.068Z,14.53
2019-04-21T20:46:49.341Z,14.48
2019-04-21T20:49:15.716Z,14.45
2019-04-21T20:51:42.526Z,14.35
2019-04-21T20:54:16.030Z,14.39
2019-04-21T20:56:45.217Z,14.07
2019-04-21T20:59:11.954Z,13.68
2019-04-21T21:01:39.369Z,13.75
2019-04-21T21:06:32.835Z,13.71
2019-04-21T21:09:01.526Z,13.53
2019-04-21T21:11:29.358Z,13.39
2019-04-21T21:14:03.870Z,13.29
2019-04-21T21:16:29.547Z,13.28
2019-04-21T21:19:08.533Z,13.18
2019-04-21T21:21:23.020Z,13.20
2019-04-21T21:23:51.312Z,13.13
2019-04-21T21:26:21.901Z,13.06
2019-04-21T21:28:39.084Z,13.00
2019-04-21T21:31:12.966Z,13.07
2019-04-21T21:33:54.221Z,12.65
2019-04-21T21:36:10.705Z,11.79
2019-04-21T21:38:36.526Z,11.23
2019-04-21T21:40:57.377Z,11.48
2019-04-21T21:43:21.159Z,11.83
2019-04-21T21:45:50.029Z,12.04
2019-04-21T21:48:32.071Z,12.18
2019-04-21T21:50:56.665Z,12.14
2019-04-21T21:53:21.507Z,11.82
2019-04-21T21:55:44.683Z,11.73
2019-04-21T21:58:12.353Z,11.94
2019-04-21T22:03:33.479Z,11.70
2019-04-21T22:06:03.508Z,10.93
2019-04-21T22:08:22.611Z,10.65
2019-04-21T22:10:49.404Z,11.24
2019-04-21T22:13:20.325Z,11.37
2019-04-21T22:15:48.250Z,11.46
2019-04-21T22:18:31.021Z,11.54
2019-04-21T22:20:55.010Z,11.33
2019-04-21T22:23:13.032Z,11.38
2019-04-21T22:25:38.058Z,11.19
2019-04-21T22:28:04.056Z,10.82
2019-04-21T22:30:37.070Z,10.90
2019-04-21T22:33:04.483Z,11.06
2019-04-21T22:35:33.519Z,11.14
2019-04-21T22:38:10.187Z,11.13
2019-04-21T22:40:33.981Z,11.06
2019-04-21T22:42:59.387Z,10.82
2019-04-21T22:45:18.054Z,10.53
2019-04-21T22:47:45.153Z,10.59
2019-04-21T22:50:53.322Z,10.74
2019-04-21T22:53:19.794Z,10.81
2019-04-21T22:55:49.591Z,10.60
2019-04-21T22:58:15.927Z,10.25
2019-04-21T23:01:04.221Z,8.86
2019-04-21T23:03:55.323Z,9.30
2019-04-21T23:06:22.047Z,9.30
2019-04-21T23:08:48.066Z,9.68
2019-04-21T23:11:15.885Z,9.91
2019-04-21T23:13:45.059Z,9.88
2019-04-21T23:16:33.739Z,9.80
2019-04-21T23:19:15.918Z,9.80
2019-04-21T23:21:45.791Z,9.85
2019-04-21T23:24:08.763Z,9.85
2019-04-21T23:26:37.482Z,9.77
2019-04-21T23:29:39.206Z,9.03
2019-04-21T23:32:13.230Z,9.13
2019-04-21T23:34:30.578Z,9.13
2019-04-21T23:37:00.233Z,9.27
2019-04-21T23:39:23.396Z,9.42
2019-04-21T23:41:51.606Z,8.88
2019-04-21T23:44:17.226Z,8.94
2019-04-21T23:46:44.464Z,8.97
2019-04-21T23:49:42.980Z,9.10
2019-04-21T23:52:19.769Z,9.34
2019-04-21T23:54:47.228Z,9.34
2019-04-21T23:57:39.705Z,9.42
